Portada
METAR-TAF:

METAR-TAF

Aeropuertos :

Payam

Karaj, Irán

latitud: 35-46-34N, longitud: 050-49-36E, altitud: 1271 m

Observación

El informe se hizo hace 55 minutos, a las 21:00 UTC
Viento 6 kt del norte-noreste
Temperatura 22°C
Humedad 38%
Presión 1017 hPa
Visibilidad 10 km o más
Escasas nubes a una altura de 10000 ft

METAR: OIIP 282100Z 02006KT 9999 FEW100 22/07 Q1017 A3003

Hora: 02:25 (21:55 UTC)


TAF: falta

Observaciones y pronósticos meteorológicos de más de 4000 aeropuertos (mensajes METAR y TAF).

Los puntos amarillos y rojos representan las estaciones disponibles.

Ponga el ratón en el punto deseado para ver el nombre de la estación.

Haga clic para ver las observaciones y los pronósticos meteorológicos.

Para cambiar el mapa : haga clic en los botones verdes con una cruz de color negro para hacer un zoom, en el botón verde con un guión para alejar o en las flechas verdes para mapas adyacentes.


METAR-TAF: